This is the latest recevied weather packets stored in our database for station/object HI8S-13. If no packets are shown the sender has not sent any weather packets the latest 10 day(s).
| Time | Temp. | Humidity | Pressure | Rain* | Wind** | Luminosity | Snow |
|---|---|---|---|---|---|---|---|
| 1777868306 | - | - | 1016.4 hPa | 0 mm | - | - | - |
| 1777868012 | - | - | 1016.4 hPa | 0 mm | - | - | - |
| 1777867747 | - | - | 1016.6 hPa | 0 mm | - | - | - |
| 1777867455 | - | - | 1016.6 hPa | 0 mm | - | - | - |
| 1777867108 | - | - | 1016.6 hPa | 0 mm | - | - | - |
| 1777865925 | 26.11° C | 78% | 1016.7 hPa | 0 mm | - | - | - |
| 1777863809 | 27.22° C | 78% | 1016.7 hPa | 0 mm | - | - | - |
| 1777863506 | 27.22° C | 78% | 1016.7 hPa | 0 mm | - | - | - |
| 1777863212 | 27.22° C | 78% | 1016.8 hPa | 0 mm | - | - | - |
| 1777846413 | 29.44° C | 72% | 1014.5 hPa | 0 mm | - | - | - |
| 1777845213 | 30° C | 72% | 1014.6 hPa | 0 mm | - | - | - |
| 1777844006 | 30° C | 72% | 1014.5 hPa | 0 mm | - | - | - |
| 1777843407 | 29.44° C | 71% | 1014.5 hPa | 0 mm | - | - | - |
| 1777843112 | 30° C | 71% | 1014.6 hPa | 0 mm | - | - | - |
| 1777842809 | 30° C | 70% | 1014.6 hPa | 0 mm | - | - | - |
| 1777842212 | 30° C | 69% | 1014.6 hPa | 0 mm | - | - | - |
| 1777841907 | 30° C | 69% | 1014.7 hPa | 0 mm | - | - | - |
| 1777840707 | 30° C | 68% | 1014.5 hPa | 0 mm | - | - | - |
| 1777840407 | 30° C | 68% | 1014.5 hPa | 0 mm | - | - | - |
| 1777840111 | 30° C | 67% | 1014.5 hPa | 0 mm | - | - | - |
| 1777839808 | 30.56° C | 66% | 1014.6 hPa | 0 mm | - | - | - |
| 1777839513 | 30.56° C | 65% | 1014.6 hPa | 0 mm | - | - | - |
| 1777836819 | 32.22° C | 60% | 1014.9 hPa | 0 mm | - | - | - |
| 1777836523 | 32.22° C | 59% | 1014.9 hPa | 0 mm | - | - | - |
| 1777835906 | 32.22° C | 60% | 1014.9 hPa | 0 mm | - | - | - |
* Rain latest hour (hover to see other rain measurements)
** Current wind speed in m/s (hover to see current wind gust speed)